KSJT/SJT METAR and TAF weather

Enter ICAO airport designator
Station Type Date Time Source
KSJT METAR 2020/01/28 20:51 UTC NOAA

KSJT 282051Z 31018KT 10SM OVC035 10/01 A2996 RMK AO2 SLP143 T01000011 55003


Station Type Date Time Source
KSJT Decoded METAR 2020/01/28 20:51 UTC NOAA

MATHIS FIELD, TX, United States (KSJT) 31-21N 100-30W 581M
Jan 28, 2020 - 03:51 PM EST / 2020.01.28 2051 UTC
Wind: from the NW (310 degrees) at 21 MPH (18 KT):0
Visibility: 10 mile(s):0
Sky conditions: overcast
Temperature: 50.0 F (10.0 C)
Dew Point: 34.0 F (1.1 C)
Relative Humidity: 53%
Pressure (altimeter): 29.96 in. Hg (1014 hPa)
Pressure tendency: 0.01 inches (0.3 hPa) lower than three hours ago
ob: KSJT 282051Z 31018KT 10SM OVC035 10/01 A2996 RMK AO2 SLP143 T01000011 55003
cycle: 21

Station Type Date Time Source
KSJT TAF 2020/01/28 18:40 UTC NOAA

TAF KSJT 281737Z 2818/2918 30023G33KT P6SM BKN035
TEMPO 2818/2820 BKN025
FM282200 32024G32KT P6SM BKN035
FM290100 32017G24KT P6SM FEW250
FM290400 33012KT P6SM SKC

Example: see airport list